createdAt,value
2022-08-05T00:00:18.784Z,160672.22
2022-08-05T00:03:06.178Z,160669.56
2022-08-05T00:06:05.646Z,160666.91
2022-08-05T00:08:34.455Z,160656.19
2022-08-05T00:11:07.499Z,160662.88
2022-08-05T00:13:53.156Z,160658.88
2022-08-05T00:16:35.506Z,160656.19
2022-08-05T00:19:04.203Z,160642.78
2022-08-05T00:21:35.935Z,160649.47
2022-08-05T00:24:10.079Z,160644.09
2022-08-05T00:26:50.761Z,160641.44
2022-08-05T00:29:25.471Z,160648.16
2022-08-05T00:32:12.790Z,160638.78
2022-08-05T00:35:04.494Z,160634.75
2022-08-05T00:37:52.320Z,160622.69
2022-08-05T00:40:27.929Z,160620.03
2022-08-05T00:42:59.466Z,160612.00
2022-08-05T00:45:38.823Z,160602.66
2022-08-05T00:48:12.964Z,160598.59
2022-08-05T00:50:44.035Z,160594.56
2022-08-05T00:54:00.738Z,160601.28
2022-08-05T00:55:59.994Z,160582.56
2022-08-05T00:58:27.837Z,160582.56
2022-08-05T01:00:55.626Z,160561.13
2022-08-05T01:03:24.445Z,160587.94
2022-08-05T01:05:58.669Z,160609.34
2022-08-05T01:08:30.292Z,160632.09
2022-08-05T01:11:33.532Z,160662.88
2022-08-05T01:14:08.989Z,160696.41
2022-08-05T01:16:53.546Z,160678.94
2022-08-05T01:20:01.682Z,160737.94
2022-08-05T01:22:46.937Z,160778.09
2022-08-05T01:25:41.681Z,160829.03
2022-08-05T01:28:31.165Z,160881.25
2022-08-05T01:31:45.150Z,160913.44
2022-08-05T01:34:16.310Z,160938.84
2022-08-05T01:37:06.572Z,160968.34
2022-08-05T01:39:47.587Z,160964.34
2022-08-05T01:42:18.221Z,160952.25
2022-08-05T01:44:53.821Z,160920.13
2022-08-05T01:47:23.808Z,160875.88
2022-08-05T01:50:02.007Z,160854.44
2022-08-05T01:52:32.258Z,160870.56
2022-08-05T01:55:04.378Z,160898.66
2022-08-05T01:58:18.773Z,160918.75
2022-08-05T02:00:29.970Z,160948.22
2022-08-05T02:03:03.714Z,160965.66
2022-08-05T02:05:34.467Z,160984.50
2022-08-05T02:08:04.280Z,160999.22
2022-08-05T02:10:36.790Z,161007.28
2022-08-05T02:13:48.755Z,161022.00
2022-08-05T02:16:22.422Z,161020.69
2022-08-05T02:19:02.045Z,161030.03
2022-08-05T02:21:46.646Z,161022.00
2022-08-05T02:24:19.527Z,161009.94
2022-08-05T02:26:55.153Z,161023.34
2022-08-05T02:29:26.026Z,161027.38
2022-08-05T02:32:23.869Z,161040.78
2022-08-05T02:35:02.009Z,161039.41
2022-08-05T02:37:43.270Z,161050.16
2022-08-05T02:40:17.136Z,161051.47
2022-08-05T02:42:45.275Z,161050.16
2022-08-05T02:45:23.967Z,161032.69
2022-08-05T02:48:07.113Z,161042.13
2022-08-05T02:50:46.138Z,161044.78
2022-08-05T02:53:19.135Z,161046.09
2022-08-05T02:55:54.377Z,161028.72
2022-08-05T02:58:26.820Z,161038.06
2022-08-05T03:00:56.366Z,161034.09
2022-08-05T03:03:24.211Z,161043.44
2022-08-05T03:06:55.815Z,161047.50
2022-08-05T03:08:42.580Z,161067.56
2022-08-05T03:11:55.022Z,161068.94
2022-08-05T03:14:13.487Z,161074.25
2022-08-05T03:16:41.305Z,161070.25
2022-08-05T03:19:17.029Z,161062.22
2022-08-05T03:21:57.570Z,161059.50
2022-08-05T03:24:29.994Z,161054.13
2022-08-05T03:27:02.094Z,161040.78
2022-08-05T03:29:45.535Z,161009.94
2022-08-05T03:32:19.662Z,161027.38
2022-08-05T03:34:51.055Z,161028.72
2022-08-05T03:37:21.335Z,161031.38
2022-08-05T03:40:01.037Z,161008.59
2022-08-05T03:42:32.312Z,160981.78
2022-08-05T03:45:01.791Z,160921.47
2022-08-05T03:47:49.274Z,160912.03
2022-08-05T03:50:17.241Z,160914.75
2022-08-05T03:55:51.363Z,160905.34
2022-08-05T03:56:11.015Z,160904.00
2022-08-05T03:58:41.154Z,160922.78
2022-08-05T04:01:12.857Z,160945.56
2022-08-05T04:04:10.155Z,160976.41
2022-08-05T04:06:31.951Z,161027.38
2022-08-05T04:08:59.644Z,161079.63
2022-08-05T04:11:50.853Z,161114.47
2022-08-05T04:14:18.042Z,161150.66
2022-08-05T04:16:45.833Z,161168.13
2022-08-05T04:19:13.473Z,161201.59
2022-08-05T04:22:09.703Z,161224.44
2022-08-05T04:24:29.260Z,161288.84
2022-08-05T04:26:58.110Z,161307.59
2022-08-05T04:29:27.131Z,161349.19
2022-08-05T04:31:56.917Z,161385.38
2022-08-05T04:34:32.751Z,161421.59
2022-08-05T04:37:03.143Z,161467.25
2022-08-05T04:39:32.197Z,161507.50
2022-08-05T04:42:00.260Z,161533.00
2022-08-05T04:44:30.504Z,161570.56
2022-08-05T04:46:59.390Z,161618.88
2022-08-05T04:49:39.169Z,161680.63
2022-08-05T04:52:16.546Z,161730.34
2022-08-05T04:54:45.464Z,161771.97
2022-08-05T04:57:13.672Z,161812.28
2022-08-05T04:59:41.374Z,161863.28
2022-08-05T05:02:36.947Z,161912.97
2022-08-05T05:05:02.119Z,161977.47
2022-08-05T05:07:32.329Z,162025.84
2022-08-05T05:10:04.569Z,162080.88
2022-08-05T05:12:32.516Z,162135.97
2022-08-05T05:15:03.869Z,162199.19
2022-08-05T05:17:56.743Z,162281.19
2022-08-05T05:20:28.439Z,162348.38
2022-08-05T05:23:08.267Z,162421.00
2022-08-05T05:25:47.836Z,162519.16
2022-08-05T05:28:16.578Z,162590.44
2022-08-05T05:30:44.654Z,162703.47
2022-08-05T05:33:23.416Z,162842.13
2022-08-05T05:35:51.892Z,162965.91
2022-08-05T05:38:22.649Z,162994.22
2022-08-05T05:40:56.286Z,163041.34
2022-08-05T05:43:54.546Z,163084.44
2022-08-05T05:46:17.598Z,163188.13
2022-08-05T05:48:49.006Z,163209.66
2022-08-05T05:51:21.253Z,163235.28
2022-08-05T05:53:57.583Z,163277.03
2022-08-05T05:56:32.917Z,163247.41
2022-08-05T05:59:07.706Z,163233.94
2022-08-05T06:01:39.839Z,163264.88
2022-08-05T06:04:12.652Z,163285.09
2022-08-05T06:06:47.646Z,163314.72
2022-08-05T06:09:25.783Z,163339.00
2022-08-05T06:11:59.259Z,163286.44
2022-08-05T06:14:31.325Z,163309.31
2022-08-05T06:16:59.289Z,163349.75
2022-08-05T06:19:34.024Z,163371.34
2022-08-05T06:22:06.895Z,163285.09
2022-08-05T06:24:35.534Z,163326.84
2022-08-05T06:27:04.215Z,163376.75
2022-08-05T06:29:46.967Z,163422.53
2022-08-05T06:32:25.254Z,163407.72
2022-08-05T06:34:59.221Z,163423.84
2022-08-05T06:37:56.481Z,163469.69
2022-08-05T06:40:17.940Z,163429.25
2022-08-05T06:42:52.306Z,163476.44
2022-08-05T06:45:55.483Z,163496.66
2022-08-05T06:48:36.902Z,163512.81
2022-08-05T06:51:00.262Z,163623.38
2022-08-05T06:53:28.979Z,163704.28
2022-08-05T06:55:58.629Z,163666.50
2022-08-05T06:58:35.408Z,163673.25
2022-08-05T07:01:06.396Z,163717.75
2022-08-05T07:03:34.463Z,163724.50
2022-08-05T07:06:06.076Z,163716.44
2022-08-05T07:08:47.881Z,163724.50
2022-08-05T07:11:22.448Z,163657.03
2022-08-05T07:14:15.381Z,163669.19
2022-08-05T07:18:00.162Z,163642.22
2022-08-05T07:22:29.837Z,163783.81
2022-08-05T07:24:59.597Z,163840.44
2022-08-05T07:27:57.742Z,163890.38
2022-08-05T07:30:33.766Z,163937.56
2022-08-05T07:33:05.113Z,164009.06
2022-08-05T07:36:04.594Z,163971.25
2022-08-05T07:38:34.420Z,163973.97
2022-08-05T07:42:06.863Z,163948.34
2022-08-05T07:43:57.877Z,163837.75
2022-08-05T07:46:27.524Z,163804.03
2022-08-05T07:49:02.903Z,163883.63
2022-08-05T07:51:53.138Z,163898.44
2022-08-05T07:54:31.021Z,163948.34
2022-08-05T07:57:17.834Z,163982.06
2022-08-05T07:59:50.613Z,163953.75
2022-08-05T08:02:18.701Z,164045.50
2022-08-05T08:04:47.662Z,164071.09
2022-08-05T08:07:22.018Z,164108.91
2022-08-05T08:09:53.186Z,164118.34
2022-08-05T08:12:35.013Z,164175.00
2022-08-05T08:15:14.042Z,164266.81
2022-08-05T08:17:52.698Z,164319.41
2022-08-05T08:21:00.236Z,164189.84
2022-08-05T08:23:11.587Z,164063.03
2022-08-05T08:25:59.961Z,164079.25
2022-08-05T08:28:35.639Z,164073.84
2022-08-05T08:31:08.581Z,164158.81
2022-08-05T08:33:37.882Z,164245.22
2022-08-05T08:38:57.440Z,164307.28
2022-08-05T08:41:50.815Z,164331.56
2022-08-05T08:45:18.773Z,164368.06
2022-08-05T08:47:47.423Z,164385.63
2022-08-05T08:50:23.438Z,164366.72
2022-08-05T08:52:55.843Z,164390.97
2022-08-05T08:56:02.150Z,164416.66
2022-08-05T08:58:13.250Z,164407.22
2022-08-05T09:00:42.901Z,164500.34
2022-08-05T09:03:16.236Z,164509.81
2022-08-05T09:06:08.172Z,164534.09
2022-08-05T09:08:40.030Z,164474.69
2022-08-05T09:11:13.761Z,164374.81
2022-08-05T09:14:09.232Z,164342.34
2022-08-05T09:16:31.163Z,164366.72
2022-08-05T09:18:59.360Z,164382.88
2022-08-05T09:22:23.428Z,164424.72
2022-08-05T09:24:16.537Z,164462.50
2022-08-05T09:26:47.956Z,164420.66
2022-08-05T09:29:19.719Z,164392.31
2022-08-05T09:32:42.950Z,164446.31
2022-08-05T09:34:58.791Z,164447.66
2022-08-05T09:38:17.720Z,164454.41
2022-08-05T09:40:35.261Z,164530.09
2022-08-05T09:43:03.983Z,164543.59
2022-08-05T09:46:06.277Z,164616.47
2022-08-05T09:48:33.240Z,164526.00
2022-08-05T09:51:02.554Z,164497.63
2022-08-05T09:53:53.488Z,164526.00
2022-08-05T09:56:33.728Z,164573.28
2022-08-05T09:59:08.022Z,164474.69
2022-08-05T10:01:39.611Z,164393.72
2022-08-05T10:04:12.528Z,164443.66
2022-08-05T10:06:54.673Z,164489.53
2022-08-05T10:09:29.412Z,164463.91
2022-08-05T10:12:30.467Z,164446.31
2022-08-05T10:15:23.923Z,164408.56
2022-08-05T10:18:05.099Z,164396.38
2022-08-05T10:20:34.348Z,164400.47
2022-08-05T10:23:02.310Z,164416.66
2022-08-05T10:25:31.588Z,164469.25
2022-08-05T10:28:16.707Z,164489.53
2022-08-05T10:32:52.140Z,164498.94
2022-08-05T10:33:36.197Z,164509.81
2022-08-05T10:36:05.154Z,164519.25
2022-08-05T10:38:34.892Z,164519.25
2022-08-05T10:41:09.974Z,164497.63
2022-08-05T10:43:46.451Z,164488.19
2022-08-05T10:46:19.384Z,164543.59
2022-08-05T10:49:09.870Z,164547.63
2022-08-05T10:52:00.691Z,164531.44
2022-08-05T10:54:56.363Z,164557.09
2022-08-05T10:57:29.673Z,164466.59
2022-08-05T11:00:20.724Z,164496.28
2022-08-05T11:03:24.341Z,164527.34
2022-08-05T11:06:15.249Z,164503.03
2022-08-05T11:09:16.291Z,164496.28
2022-08-05T11:11:53.452Z,164534.09
2022-08-05T11:14:49.384Z,164532.75
2022-08-05T11:17:58.950Z,164524.66
2022-08-05T11:20:41.590Z,164584.06
2022-08-05T11:23:33.289Z,164613.81
2022-08-05T11:26:32.130Z,164535.50
2022-08-05T11:29:13.069Z,164575.97
2022-08-05T11:31:57.801Z,164589.47
2022-08-05T11:34:51.709Z,164565.19
2022-08-05T11:38:36.518Z,164601.63
2022-08-05T11:41:34.795Z,164582.72
2022-08-05T11:44:06.535Z,164586.78
2022-08-05T11:46:58.432Z,164619.16
2022-08-05T11:49:25.917Z,164640.75
2022-08-05T11:51:54.297Z,164642.16
2022-08-05T11:54:32.735Z,164615.16
2022-08-05T11:57:08.311Z,164658.34
2022-08-05T11:59:52.051Z,164625.91
2022-08-05T12:02:30.186Z,164613.81
2022-08-05T12:05:07.903Z,164607.03
2022-08-05T12:08:03.823Z,164640.75
2022-08-05T12:10:43.037Z,164644.84
2022-08-05T12:13:18.630Z,164613.81
2022-08-05T12:15:56.070Z,164615.16
2022-08-05T12:18:38.707Z,164652.94
2022-08-05T12:21:15.241Z,164669.16
2022-08-05T12:24:06.979Z,164684.03
2022-08-05T12:26:39.136Z,164673.25
2022-08-05T12:29:16.289Z,164697.53
2022-08-05T12:31:53.081Z,164666.50
2022-08-05T12:34:37.213Z,164670.56
2022-08-05T12:37:17.703Z,164682.69
2022-08-05T12:39:53.923Z,164650.25
2022-08-05T12:42:21.954Z,164624.56
2022-08-05T12:44:53.201Z,164604.31
2022-08-05T12:47:30.430Z,164638.09
2022-08-05T12:50:04.310Z,164647.50
2022-08-05T12:52:38.878Z,164647.50
2022-08-05T12:55:32.873Z,164666.50
2022-08-05T12:58:52.684Z,164650.25
2022-08-05T13:02:03.140Z,164635.41
2022-08-05T13:03:42.233Z,164631.31
2022-08-05T13:06:17.978Z,164620.56
2022-08-05T13:08:51.556Z,164635.41
2022-08-05T13:12:02.767Z,164619.16
2022-08-05T13:14:24.996Z,164607.03
2022-08-05T13:17:10.634Z,164588.13
2022-08-05T13:19:52.090Z,164575.97
2022-08-05T13:22:28.147Z,164600.28
2022-08-05T13:25:00.606Z,164628.66
2022-08-05T13:27:41.985Z,164670.56
2022-08-05T13:30:34.712Z,164692.16
2022-08-05T13:33:01.424Z,164733.97
2022-08-05T13:35:42.490Z,164742.13
2022-08-05T13:38:20.042Z,164728.63
2022-08-05T13:40:57.853Z,164738.06
2022-08-05T13:43:45.304Z,164735.38
2022-08-05T13:46:14.394Z,164761.00
2022-08-05T13:48:58.178Z,164736.72
2022-08-05T13:51:29.861Z,164712.38
2022-08-05T13:54:12.485Z,164697.53
2022-08-05T13:56:50.916Z,164709.69
2022-08-05T13:59:25.310Z,164725.88
2022-08-05T14:01:56.599Z,164727.22
2022-08-05T14:04:49.888Z,164725.88
2022-08-05T14:07:55.519Z,164702.94
2022-08-05T14:10:19.027Z,164711.03
2022-08-05T14:12:55.729Z,164712.38
2022-08-05T14:16:04.559Z,164752.91
2022-08-05T14:18:17.290Z,164779.94
2022-08-05T14:20:48.378Z,164796.13
2022-08-05T14:23:23.448Z,164829.94
2022-08-05T14:25:58.128Z,164846.16
2022-08-05T14:28:28.952Z,164790.72
2022-08-05T14:30:58.122Z,164767.75
2022-08-05T14:33:25.900Z,164789.38
2022-08-05T14:35:54.537Z,164782.59
2022-08-05T14:38:32.315Z,164788.03
2022-08-05T14:41:06.114Z,164796.13
2022-08-05T14:43:57.456Z,164766.41
2022-08-05T14:46:29.639Z,164723.22
2022-08-05T14:49:06.307Z,164692.16
2022-08-05T14:51:37.592Z,164678.66
2022-08-05T14:54:28.082Z,164697.53
2022-08-05T14:56:55.593Z,164692.16
2022-08-05T14:59:23.488Z,164712.38
2022-08-05T15:01:51.286Z,164736.72
2022-08-05T15:04:22.287Z,164736.72
2022-08-05T15:06:51.268Z,164731.31
2022-08-05T15:09:53.543Z,164688.09
2022-08-05T15:12:11.668Z,164697.53
2022-08-05T15:14:49.612Z,164689.44
2022-08-05T15:17:45.929Z,164693.50
2022-08-05T15:20:18.207Z,164678.66
2022-08-05T15:22:54.029Z,164711.03
2022-08-05T15:25:41.093Z,164720.53
2022-08-05T15:28:14.848Z,164742.13
2022-08-05T15:30:45.719Z,164742.13
2022-08-05T15:34:05.886Z,164735.38
2022-08-05T15:36:04.527Z,164685.41
2022-08-05T15:38:40.840Z,164689.44
2022-08-05T15:41:22.859Z,164646.19
2022-08-05T15:43:55.057Z,164647.50
2022-08-05T15:46:24.830Z,164628.66
2022-08-05T15:48:58.901Z,164611.06
2022-08-05T15:52:13.881Z,164617.81
2022-08-05T15:54:35.033Z,164619.16
2022-08-05T15:57:07.391Z,164590.81
2022-08-05T15:59:38.125Z,164607.03
2022-08-05T16:02:19.813Z,164617.81
2022-08-05T16:04:53.466Z,164612.41
2022-08-05T16:07:22.866Z,164575.97
2022-08-05T16:09:50.591Z,164580.03
2022-08-05T16:12:22.475Z,164548.94
2022-08-05T16:14:51.066Z,164553.03
2022-08-05T16:17:18.729Z,164539.50
2022-08-05T16:20:04.779Z,164546.28
2022-08-05T16:22:34.606Z,164555.69
2022-08-05T16:25:08.046Z,164555.69
2022-08-05T16:28:00.902Z,164566.53
2022-08-05T16:30:29.036Z,164580.03
2022-08-05T16:32:58.177Z,164590.81
2022-08-05T16:35:28.494Z,164589.47
2022-08-05T16:38:23.830Z,164566.53
2022-08-05T16:40:55.245Z,164559.78
2022-08-05T16:43:25.317Z,164540.84
2022-08-05T16:46:03.549Z,164542.25
2022-08-05T16:48:38.302Z,164539.50
2022-08-05T16:51:09.002Z,164542.25
2022-08-05T16:54:04.180Z,164542.25
2022-08-05T16:56:29.839Z,164517.91
2022-08-05T16:58:58.382Z,164507.09
2022-08-05T17:01:26.483Z,164496.28
2022-08-05T17:03:54.305Z,164488.19
2022-08-05T17:06:24.681Z,164455.75
2022-08-05T17:08:54.359Z,164451.75
2022-08-05T17:11:23.930Z,164420.66
2022-08-05T17:14:05.287Z,164405.81
2022-08-05T17:16:36.733Z,164370.72
2022-08-05T17:19:07.719Z,164347.75
2022-08-05T17:21:39.637Z,164324.81
2022-08-05T17:24:19.634Z,164332.91
2022-08-05T17:26:58.039Z,164304.56
2022-08-05T17:29:33.180Z,164295.13
2022-08-05T17:32:01.902Z,164274.88
2022-08-05T17:34:32.611Z,164241.16
2022-08-05T17:37:02.464Z,164216.88
2022-08-05T17:39:33.932Z,164158.81
2022-08-05T17:42:17.352Z,164115.66
2022-08-05T17:44:51.081Z,164069.78
2022-08-05T17:47:23.605Z,164025.22
2022-08-05T17:50:03.958Z,163998.25
2022-08-05T17:52:53.451Z,163952.41
2022-08-05T17:55:27.422Z,163870.13
2022-08-05T17:58:09.675Z,163805.38
2022-08-05T18:00:44.676Z,163756.84
2022-08-05T18:03:56.285Z,163723.16
2022-08-05T18:06:12.097Z,163679.94
2022-08-05T18:08:52.434Z,163634.13
2022-08-05T18:11:23.934Z,163604.50
2022-08-05T18:13:54.112Z,163507.41
2022-08-05T18:16:21.863Z,163462.97
2022-08-05T18:18:50.067Z,163440.06
2022-08-05T18:21:21.459Z,163398.28
2022-08-05T18:23:54.272Z,163341.66
2022-08-05T18:26:29.345Z,163266.22
2022-08-05T18:28:59.797Z,163213.72
2022-08-05T18:31:33.009Z,163161.19
2022-08-05T18:34:05.877Z,163136.91
2022-08-05T18:36:35.601Z,163069.63
2022-08-05T18:39:09.724Z,163030.56
2022-08-05T18:41:55.344Z,162960.50
2022-08-05T18:44:34.944Z,162947.03
2022-08-05T18:47:17.180Z,162899.97
2022-08-05T18:50:03.319Z,162858.25
2022-08-05T18:52:51.082Z,162821.94
2022-08-05T18:55:22.425Z,162792.34
2022-08-05T18:57:54.073Z,162765.38
2022-08-05T19:00:27.304Z,162737.09
2022-08-05T19:03:04.069Z,162712.88
2022-08-05T19:06:11.914Z,162671.22
2022-08-05T19:08:30.898Z,162659.09
2022-08-05T19:11:04.931Z,162590.44
2022-08-05T19:13:35.947Z,162566.25
2022-08-05T19:16:25.324Z,162538.00
2022-08-05T19:18:53.741Z,162533.94
2022-08-05T19:21:27.536Z,162516.47
2022-08-05T19:24:08.692Z,162503.03
2022-08-05T19:26:55.040Z,162490.91
2022-08-05T19:29:26.706Z,162464.00
2022-08-05T19:32:11.271Z,162443.88
2022-08-05T19:34:39.479Z,162423.72
2022-08-05T19:37:07.435Z,162407.53
2022-08-05T19:39:45.177Z,162400.81
2022-08-05T19:42:15.189Z,162392.75
2022-08-05T19:44:45.199Z,162372.59
2022-08-05T19:47:15.350Z,162337.63
2022-08-05T19:49:46.033Z,162304.03
2022-08-05T19:52:31.457Z,162266.41
2022-08-05T19:55:06.577Z,162256.97
2022-08-05T19:57:49.216Z,162248.91
2022-08-05T20:00:31.346Z,162232.78
2022-08-05T20:02:59.882Z,162222.00
2022-08-05T20:05:27.397Z,162222.00
2022-08-05T20:08:11.573Z,162203.25
2022-08-05T20:10:39.671Z,162188.47
2022-08-05T20:13:12.368Z,162189.78
2022-08-05T20:15:52.204Z,162174.97
2022-08-05T20:18:33.806Z,162153.47
2022-08-05T20:21:06.685Z,162135.97
2022-08-05T20:23:50.941Z,162110.47
2022-08-05T20:26:25.394Z,162087.59
2022-08-05T20:28:57.660Z,162074.16
2022-08-05T20:31:43.009Z,162060.78
2022-08-05T20:34:17.183Z,162044.63
2022-08-05T20:36:45.800Z,162039.28
2022-08-05T20:39:16.284Z,162036.56
2022-08-05T20:41:45.213Z,162033.91
2022-08-05T20:44:29.707Z,162031.19
2022-08-05T20:47:06.614Z,162027.19
2022-08-05T20:49:38.059Z,162021.78
2022-08-05T20:52:10.631Z,162000.31
2022-08-05T20:54:59.866Z,161996.25
2022-08-05T20:57:43.560Z,162012.41
2022-08-05T21:00:35.010Z,162000.31
2022-08-05T21:03:07.385Z,162012.41
2022-08-05T21:05:47.901Z,162052.66
2022-08-05T21:08:28.089Z,162082.25
2022-08-05T21:11:12.071Z,162103.75
2022-08-05T21:13:47.745Z,162142.69
2022-08-05T21:16:29.818Z,162164.19
2022-08-05T21:19:00.840Z,162161.53
2022-08-05T21:21:44.216Z,162172.25
2022-08-05T21:24:19.917Z,162212.63
2022-08-05T21:26:53.216Z,162297.28
2022-08-05T21:29:31.820Z,162367.19
2022-08-05T21:32:04.481Z,162435.78
2022-08-05T21:34:33.123Z,162478.81
2022-08-05T21:37:05.016Z,162538.00
2022-08-05T21:39:34.803Z,162590.44
2022-08-05T21:42:31.159Z,162621.44
2022-08-05T21:44:56.368Z,162669.81
2022-08-05T21:47:54.984Z,162711.53
2022-08-05T21:50:14.695Z,162755.97
2022-08-05T21:52:47.340Z,162777.50
2022-08-05T21:55:17.152Z,162792.34
2022-08-05T21:57:45.278Z,162796.34
2022-08-05T22:00:14.641Z,162823.25
2022-08-05T22:02:43.235Z,162838.06
2022-08-05T22:05:12.763Z,162836.72
2022-08-05T22:07:59.598Z,162847.47
2022-08-05T22:10:31.323Z,162847.47
2022-08-05T22:14:06.049Z,162869.00
2022-08-05T22:16:01.367Z,162874.38
2022-08-05T22:18:30.838Z,162866.31
2022-08-05T22:21:04.216Z,162870.38
2022-08-05T22:24:52.396Z,162869.00
2022-08-05T22:28:08.220Z,162864.97
2022-08-05T22:30:35.373Z,162869.00
2022-08-05T22:33:15.286Z,162867.66
2022-08-05T22:35:48.083Z,162848.84
2022-08-05T22:38:19.644Z,162834.00
2022-08-05T22:40:49.532Z,162839.41
2022-08-05T22:43:37.228Z,162817.88
2022-08-05T22:46:13.035Z,162823.25
2022-08-05T22:48:43.187Z,162804.41
2022-08-05T22:51:16.055Z,162821.94
2022-08-05T22:53:54.940Z,162812.47
2022-08-05T22:56:30.230Z,162793.66
2022-08-05T22:59:03.981Z,162803.06
2022-08-05T23:02:04.086Z,162770.75
2022-08-05T23:04:33.352Z,162773.44
2022-08-05T23:07:00.779Z,162768.03
2022-08-05T23:09:57.637Z,162777.50
2022-08-05T23:12:18.092Z,162780.16
2022-08-05T23:14:45.924Z,162780.16
2022-08-05T23:17:32.713Z,162784.16
2022-08-05T23:20:16.784Z,162772.09
2022-08-05T23:22:48.701Z,162770.75
2022-08-05T23:25:51.448Z,162769.38
2022-08-05T23:28:07.134Z,162751.91
2022-08-05T23:30:40.594Z,162743.84
2022-08-05T23:33:16.368Z,162733.06
2022-08-05T23:35:56.059Z,162723.66
2022-08-05T23:38:26.170Z,162716.91
2022-08-05T23:40:54.561Z,162718.25
2022-08-05T23:43:24.885Z,162712.88
2022-08-05T23:46:19.970Z,162706.13
2022-08-05T23:48:59.626Z,162703.47
2022-08-05T23:51:54.107Z,162679.28
2022-08-05T23:54:26.132Z,162656.38
2022-08-05T23:56:55.717Z,162636.25
